createdAt,value
2023-05-14T00:00:02.478Z,65
2023-05-14T00:20:02.861Z,64
2023-05-14T00:40:02.438Z,65
2023-05-14T01:00:02.957Z,66
2023-05-14T01:20:02.520Z,65
2023-05-14T01:40:03.062Z,65
2023-05-14T02:00:02.573Z,66
2023-05-14T02:20:03.146Z,67
2023-05-14T02:40:02.391Z,67
2023-05-14T03:00:03.137Z,67
2023-05-14T03:20:03.135Z,67
2023-05-14T03:40:03.473Z,66
2023-05-14T04:00:02.831Z,66
2023-05-14T04:20:02.405Z,66
2023-05-14T04:40:02.913Z,66
2023-05-14T05:00:02.347Z,64
2023-05-14T05:20:02.983Z,63
2023-05-14T05:40:02.472Z,60
2023-05-14T06:00:02.754Z,58
2023-05-14T06:20:02.546Z,57
2023-05-14T06:40:03.192Z,55
2023-05-14T07:00:04.080Z,53
2023-05-14T07:20:02.624Z,51
2023-05-14T07:40:02.996Z,49
2023-05-14T08:00:02.528Z,47
2023-05-14T08:20:02.314Z,46
2023-05-14T08:40:02.859Z,43
2023-05-14T09:00:03.211Z,39
2023-05-14T09:20:02.894Z,36
2023-05-14T09:40:02.539Z,31
2023-05-14T10:00:02.947Z,29
2023-05-14T10:20:02.396Z,28
2023-05-14T10:40:02.975Z,30
2023-05-14T11:00:02.498Z,31
2023-05-14T11:20:02.905Z,33
2023-05-14T11:40:02.505Z,34
2023-05-14T12:00:02.881Z,34
2023-05-14T12:20:02.345Z,33
2023-05-14T12:40:02.753Z,30
2023-05-14T13:00:03.076Z,31
2023-05-14T13:20:02.464Z,32
2023-05-14T13:40:03.081Z,31
2023-05-14T14:00:02.688Z,31
2023-05-14T14:20:03.336Z,31
2023-05-14T14:40:02.758Z,31
2023-05-14T15:00:03.127Z,31
2023-05-14T15:20:02.450Z,32
2023-05-14T15:40:02.794Z,32
2023-05-14T16:00:03.260Z,33
2023-05-14T16:20:02.448Z,34
2023-05-14T16:40:02.758Z,35
2023-05-14T17:00:03.062Z,36
2023-05-14T17:20:02.688Z,36
2023-05-14T17:40:03.443Z,37
2023-05-14T18:00:03.122Z,38
2023-05-14T18:20:02.756Z,41
2023-05-14T18:40:03.267Z,44
2023-05-14T19:00:02.898Z,46
2023-05-14T19:20:02.595Z,47
2023-05-14T19:40:03.332Z,48
2023-05-14T20:00:02.721Z,50
2023-05-14T20:20:03.364Z,52
2023-05-14T20:40:02.812Z,54
2023-05-14T21:00:03.393Z,55
2023-05-14T21:20:03.350Z,56
2023-05-14T21:40:02.651Z,58
2023-05-14T22:00:03.190Z,58
2023-05-14T22:20:02.708Z,60
2023-05-14T22:40:02.917Z,60
2023-05-14T23:00:02.368Z,60
2023-05-14T23:20:02.886Z,62
2023-05-14T23:40:03.105Z,62
